Time;durP1;ratioP1;P1;durP2;ratioP2;P2;SDS_P1;SDS_P2;PMS_P1;PMS_P2;Temp;Humidity;BMP_temperature;BMP_pressure;BME280_temperature;BME280_humidity;BME280_pressure;Samples;Min_cycle;Max_cycle;Signal;HPM_P1;HPM_P2
2022/11/05 00:10:17;;;;;;;6.60;1.10;;;9.40;99.90;;;;;;4809346;29;20062;-81
2022/11/05 00:18:12;;;;;;;3.42;0.90;;;9.40;99.90;;;;;;4768019;29;20055;-80
2022/11/05 00:20:38;;;;;;;5.25;0.82;;;9.40;99.90;;;;;;4789194;29;20124;-81
2022/11/05 00:25:59;;;;;;;6.65;1.23;;;9.30;99.90;;;;;;4797506;29;20051;-81
2022/11/05 00:28:27;;;;;;;2.50;0.90;;;9.20;99.90;;;;;;4779725;29;20058;-82
2022/11/05 00:30:53;;;;;;;4.80;1.20;;;9.10;99.90;;;;;;4777008;29;20061;-81
2022/11/05 00:33:20;;;;;;;4.13;1.17;;;9.00;99.90;;;;;;4776875;29;20050;-82
2022/11/05 00:35:46;;;;;;;2.65;0.90;;;8.90;99.90;;;;;;4779093;29;20919;-80
2022/11/05 00:38:11;;;;;;;3.58;1.00;;;8.80;99.90;;;;;;4806573;29;20043;-82
2022/11/05 00:40:37;;;;;;;3.67;0.93;;;8.70;99.90;;;;;;4778049;29;20054;-80
2022/11/05 00:45:48;;;;;;;3.88;1.00;;;8.50;99.90;;;;;;4795106;29;20050;-82
2022/11/05 00:50:58;;;;;;;2.58;0.93;;;8.40;99.90;;;;;;4794219;29;20141;-81
2022/11/05 00:53:23;;;;;;;3.85;1.20;;;8.40;99.90;;;;;;4779414;29;20050;-82
2022/11/05 00:55:49;;;;;;;2.20;0.90;;;8.40;99.90;;;;;;4782749;29;20066;-82
2022/11/05 00:58:20;;;;;;;3.03;0.80;;;8.40;99.90;;;;;;4765473;29;20050;-81
2022/11/05 01:00:53;;;;;;;3.58;0.90;;;8.30;99.90;;;;;;4793546;29;20141;-81
2022/11/05 01:03:21;;;;;;;4.78;1.00;;;8.30;99.90;;;;;;4792571;29;20054;-81
2022/11/05 01:05:49;;;;;;;2.88;0.73;;;8.20;99.90;;;;;;4795367;29;20093;-81
2022/11/05 01:08:17;;;;;;;5.65;1.02;;;8.20;99.90;;;;;;4793929;29;20051;-81
2022/11/05 01:10:46;;;;;;;4.57;1.00;;;8.40;99.90;;;;;;4780566;29;20050;-82
2022/11/05 01:13:12;;;;;;;7.80;1.10;;;8.40;99.90;;;;;;4792333;29;20054;-82
2022/11/05 01:15:38;;;;;;;4.30;1.27;;;8.50;99.90;;;;;;4780004;29;20053;-81
2022/11/05 01:18:04;;;;;;;2.58;1.00;;;8.60;99.90;;;;;;4779230;29;20061;-82
2022/11/05 01:20:31;;;;;;;3.03;0.80;;;8.70;99.90;;;;;;4779949;29;20390;-82
2022/11/05 01:22:57;;;;;;;1.88;0.82;;;8.70;99.90;;;;;;4810977;29;20572;-82
2022/11/05 01:25:23;;;;;;;8.02;1.17;;;8.80;99.90;;;;;;4793989;29;20849;-79
2022/11/05 01:27:49;;;;;;;6.47;1.35;;;9.00;99.90;;;;;;4778417;29;20084;-80
2022/11/05 01:30:15;;;;;;;4.72;1.00;;;9.10;99.90;;;;;;4777694;29;20056;-79
2022/11/05 01:32:41;;;;;;;2.40;0.88;;;9.10;99.90;;;;;;4779907;29;20061;-80
2022/11/05 01:35:11;;;;;;;4.88;0.95;;;9.10;99.90;;;;;;4791867;29;20059;-80
2022/11/05 01:37:36;;;;;;;5.68;1.58;;;9.10;99.90;;;;;;4791192;29;20051;-79
2022/11/05 01:40:03;;;;;;;5.03;0.93;;;9.10;99.90;;;;;;4791433;29;20045;-80
2022/11/05 01:42:31;;;;;;;3.42;0.85;;;9.10;99.90;;;;;;4794294;29;20050;-80
2022/11/05 01:45:03;;;;;;;2.92;0.90;;;9.10;99.90;;;;;;4794681;29;21744;-80
2022/11/05 01:47:28;;;;;;;3.40;0.90;;;9.10;99.90;;;;;;4793191;29;20160;-81
2022/11/05 01:49:56;;;;;;;2.80;1.00;;;9.10;99.90;;;;;;4789543;29;20099;-81
2022/11/05 01:52:24;;;;;;;3.80;0.93;;;9.10;99.90;;;;;;4779104;29;20050;-80
2022/11/05 01:54:50;;;;;;;3.97;0.80;;;9.10;99.90;;;;;;4783919;29;20046;-80
2022/11/05 01:57:16;;;;;;;2.83;0.70;;;9.00;99.90;;;;;;4765035;29;20051;-81
2022/11/05 01:59:46;;;;;;;3.13;1.10;;;9.00;99.90;;;;;;4749891;29;20524;-81
2022/11/05 02:02:12;;;;;;;5.07;1.50;;;9.00;99.90;;;;;;4779268;29;20736;-81
2022/11/05 02:04:46;;;;;;;4.70;1.15;;;9.00;99.90;;;;;;4795744;29;20058;-81
2022/11/05 02:07:12;;;;;;;2.00;1.00;;;9.00;99.90;;;;;;4779315;29;20059;-82
2022/11/05 02:10:01;;;;;;;4.30;1.02;;;8.90;99.90;;;;;;4763816;29;20054;-81
2022/11/05 02:12:30;;;;;;;2.65;1.00;;;8.90;99.90;;;;;;4779278;29;20059;-82
2022/11/05 02:14:56;;;;;;;1.65;1.00;;;8.90;99.90;;;;;;4778876;29;20567;-82
2022/11/05 02:18:03;;;;;;;5.97;0.95;;;8.80;99.90;;;;;;4793010;29;20054;-80
2022/11/05 02:21:03;;;;;;;2.00;0.88;;;8.80;99.90;;;;;;4791968;29;20042;-81
2022/11/05 02:24:00;;;;;;;1.63;0.80;;;8.80;99.90;;;;;;4792549;29;20057;-81
2022/11/05 02:26:44;;;;;;;3.20;1.00;;;8.80;99.90;;;;;;4806858;29;20051;-82
2022/11/05 02:29:50;;;;;;;1.10;0.68;;;8.70;99.90;;;;;;4793845;29;20100;-81
2022/11/05 02:32:16;;;;;;;2.37;0.87;;;8.70;99.90;;;;;;4765541;29;20058;-81
2022/11/05 02:35:00;;;;;;;3.05;0.80;;;8.70;99.90;;;;;;4791159;29;20058;-82
2022/11/05 02:37:39;;;;;;;1.83;0.70;;;8.80;99.90;;;;;;4777955;29;20123;-82
2022/11/05 02:40:11;;;;;;;4.07;0.88;;;8.80;99.90;;;;;;4780267;29;20047;-82
2022/11/05 02:42:54;;;;;;;2.67;0.90;;;8.80;99.90;;;;;;4808797;29;20149;-82
2022/11/05 02:45:35;;;;;;;5.97;1.10;;;8.80;99.90;;;;;;4792796;29;20062;-82
2022/11/05 02:48:09;;;;;;;2.55;0.90;;;8.80;99.90;;;;;;4777145;29;20043;-81
2022/11/05 02:50:54;;;;;;;2.90;1.00;;;8.80;99.90;;;;;;4780685;29;20141;-82
2022/11/05 02:53:40;;;;;;;2.60;0.90;;;8.80;99.90;;;;;;4784758;29;20102;-82
2022/11/05 02:56:17;;;;;;;4.30;1.00;;;8.80;99.90;;;;;;4793022;29;20064;-82
2022/11/05 02:58:43;;;;;;;5.20;1.10;;;8.70;99.90;;;;;;4794182;29;20047;-82
2022/11/05 03:01:11;;;;;;;5.28;0.98;;;8.80;99.90;;;;;;4780514;29;20078;-81
2022/11/05 03:03:43;;;;;;;2.92;0.80;;;8.80;99.90;;;;;;4791458;29;20082;-81
2022/11/05 03:06:28;;;;;;;3.17;0.90;;;8.80;99.90;;;;;;4791279;29;20051;-80
2022/11/05 03:09:29;;;;;;;1.63;0.88;;;8.80;99.90;;;;;;4778153;29;20601;-81
2022/11/05 03:12:18;;;;;;;2.10;0.80;;;8.90;99.90;;;;;;4781411;29;20369;-81
2022/11/05 03:14:59;;;;;;;1.60;0.80;;;8.90;99.90;;;;;;4793708;29;20085;-81
2022/11/05 03:17:48;;;;;;;1.85;0.95;;;8.90;99.90;;;;;;4778904;29;20054;-82
2022/11/05 03:20:16;;;;;;;1.23;0.80;;;9.00;99.90;;;;;;4794418;29;20047;-81
2022/11/05 03:23:13;;;;;;;5.55;1.27;;;9.00;99.90;;;;;;4795059;29;20062;-82
2022/11/05 03:26:00;;;;;;;4.35;1.30;;;9.00;99.90;;;;;;4781462;29;20058;-82
2022/11/05 03:28:31;;;;;;;2.58;1.10;;;9.30;99.90;;;;;;4793501;29;20055;-82
2022/11/05 03:30:57;;;;;;;3.08;1.02;;;9.40;99.90;;;;;;4792679;29;20131;-82
2022/11/05 03:33:27;;;;;;;3.55;1.13;;;9.50;99.90;;;;;;4793133;29;20611;-82
2022/11/05 03:35:57;;;;;;;2.10;1.00;;;9.50;99.90;;;;;;4793709;29;20054;-82
2022/11/05 03:38:31;;;;;;;2.67;1.00;;;9.50;99.90;;;;;;4783118;29;20066;-81
2022/11/05 03:41:02;;;;;;;7.13;1.00;;;9.50;99.90;;;;;;4792067;29;20077;-81
2022/11/05 03:43:31;;;;;;;4.30;1.00;;;10.00;99.90;;;;;;4789349;29;20062;-80
2022/11/05 03:46:08;;;;;;;3.80;1.20;;;9.50;99.90;;;;;;4804586;29;20085;-81
2022/11/05 03:48:39;;;;;;;9.93;1.30;;;9.50;99.90;;;;;;4795352;29;20057;-81
2022/11/05 03:51:21;;;;;;;4.78;1.10;;;9.40;99.90;;;;;;4795692;29;20058;-81
2022/11/05 03:53:54;;;;;;;3.63;1.05;;;9.40;99.90;;;;;;4781255;29;20058;-80
2022/11/05 03:56:43;;;;;;;4.20;1.10;;;9.40;99.90;;;;;;4793291;29;20345;-80
2022/11/05 03:59:10;;;;;;;4.65;0.95;;;9.40;99.90;;;;;;4777390;29;20058;-80
2022/11/05 04:01:37;;;;;;;6.55;1.25;;;9.40;99.90;;;;;;4775500;29;20115;-81
2022/11/05 04:04:07;;;;;;;5.18;1.38;;;9.40;99.90;;;;;;4778580;29;20054;-80
2022/11/05 04:14:47;;;;;;;3.65;1.00;;;9.40;99.90;;;;;;4805814;29;20054;-81
2022/11/05 04:17:13;;;;;;;2.90;0.90;;;9.50;99.90;;;;;;4751138;29;20050;-81
2022/11/05 04:25:17;;;;;;;2.72;1.00;;;9.20;99.90;;;;;;4796543;29;20087;-80
2022/11/05 04:27:44;;;;;;;2.50;0.80;;;9.20;99.90;;;;;;4783491;29;20065;-81
2022/11/05 04:30:23;;;;;;;3.65;1.10;;;9.10;99.90;;;;;;4795015;29;20059;-82
2022/11/05 04:33:12;;;;;;;6.63;1.63;;;9.10;99.90;;;;;;4806215;29;20054;-81
2022/11/05 04:35:39;;;;;;;4.88;1.10;;;9.10;99.90;;;;;;4778447;29;20071;-80
2022/11/05 04:38:07;;;;;;;2.28;1.00;;;9.10;99.90;;;;;;4793334;29;20177;-80
2022/11/05 04:40:33;;;;;;;3.97;1.00;;;9.00;99.90;;;;;;4796182;29;20123;-80
2022/11/05 04:42:59;;;;;;;3.28;1.30;;;9.00;99.90;;;;;;4778050;29;20074;-81
2022/11/05 04:45:27;;;;;;;3.03;0.90;;;9.00;99.90;;;;;;4773782;29;20073;-81
2022/11/05 04:47:53;;;;;;;5.72;1.10;;;8.90;99.90;;;;;;4779606;29;20062;-80
2022/11/05 04:50:19;;;;;;;1.73;0.90;;;8.90;99.90;;;;;;4764330;29;20051;-81
2022/11/05 04:52:44;;;;;;;2.80;1.05;;;8.90;99.90;;;;;;4762603;29;20059;-82
2022/11/05 04:55:10;;;;;;;3.08;1.10;;;8.90;99.90;;;;;;4788445;29;20104;-81
2022/11/05 04:57:36;;;;;;;5.28;0.80;;;8.90;99.90;;;;;;4763136;29;20165;-81
2022/11/05 05:00:03;;;;;;;3.22;1.08;;;8.80;99.90;;;;;;4791398;29;20063;-80
2022/11/05 05:02:29;;;;;;;2.55;0.88;;;8.40;99.90;;;;;;4792781;29;20050;-81
2022/11/05 05:04:54;;;;;;;3.90;1.00;;;8.80;99.90;;;;;;4775318;29;20086;-82
2022/11/05 05:07:20;;;;;;;2.20;0.90;;;8.80;99.90;;;;;;4777877;29;20131;-80
2022/11/05 05:09:46;;;;;;;2.35;0.85;;;8.80;99.90;;;;;;4774218;29;20473;-80
2022/11/05 05:12:12;;;;;;;3.58;0.80;;;8.80;99.90;;;;;;4779650;29;20462;-81
2022/11/05 05:14:37;;;;;;;3.17;1.10;;;8.70;99.90;;;;;;4750506;29;20945;-81
2022/11/05 05:17:03;;;;;;;3.50;1.10;;;8.70;99.90;;;;;;4792627;29;20119;-82
2022/11/05 05:19:30;;;;;;;2.97;1.00;;;8.90;99.90;;;;;;4762631;29;20047;-82
2022/11/05 05:21:55;;;;;;;4.57;1.10;;;8.90;99.90;;;;;;4760599;29;20910;-82
2022/11/05 05:24:23;;;;;;;1.65;1.00;;;9.10;99.90;;;;;;4744164;29;20485;-80
2022/11/05 05:26:50;;;;;;;4.72;1.30;;;9.20;99.90;;;;;;4763502;29;20078;-80
2022/11/05 05:29:17;;;;;;;4.90;1.50;;;9.40;99.90;;;;;;4794743;29;20054;-80
2022/11/05 05:31:43;;;;;;;5.63;1.38;;;9.50;99.90;;;;;;4792402;29;20058;-80
2022/11/05 05:34:11;;;;;;;5.95;1.20;;;9.60;99.90;;;;;;4793357;29;20049;-81
2022/11/05 05:36:37;;;;;;;5.57;1.35;;;9.60;99.90;;;;;;4775851;29;20050;-80
2022/11/05 05:39:07;;;;;;;3.95;1.30;;;9.60;99.90;;;;;;4776426;29;20047;-81
2022/11/05 05:41:33;;;;;;;3.25;1.40;;;9.70;99.90;;;;;;4791068;29;20416;-80
2022/11/05 05:43:59;;;;;;;5.95;1.27;;;9.70;99.90;;;;;;4794537;29;20046;-81
2022/11/05 05:46:24;;;;;;;3.05;1.30;;;9.70;99.90;;;;;;4776523;29;20046;-80
2022/11/05 05:48:51;;;;;;;4.65;1.30;;;9.70;99.90;;;;;;4777220;29;20077;-82
2022/11/05 05:51:18;;;;;;;4.07;1.13;;;9.70;99.90;;;;;;4795030;29;20062;-81
2022/11/05 05:53:44;;;;;;;4.78;1.35;;;9.70;99.90;;;;;;4762091;29;20050;-82
2022/11/05 05:56:13;;;;;;;2.53;0.95;;;9.80;99.90;;;;;;4804673;29;20553;-81
2022/11/05 05:58:40;;;;;;;2.85;1.00;;;9.70;99.90;;;;;;4777899;29;20497;-82
2022/11/05 06:01:08;;;;;;;6.53;1.30;;;9.70;99.90;;;;;;4793834;29;20114;-80
2022/11/05 06:03:34;;;;;;;2.55;0.90;;;9.70;99.90;;;;;;4789975;29;20050;-81
2022/11/05 06:06:09;;;;;;;3.45;1.25;;;9.70;99.90;;;;;;4763962;29;20062;-81
2022/11/05 06:08:35;;;;;;;3.88;1.15;;;9.70;99.90;;;;;;4777212;29;21156;-82
2022/11/05 06:11:02;;;;;;;3.92;1.10;;;9.70;99.90;;;;;;4789950;29;20051;-80
2022/11/05 06:13:28;;;;;;;4.85;1.13;;;9.70;99.90;;;;;;4790466;29;20065;-80
2022/11/05 06:16:03;;;;;;;3.30;1.00;;;9.70;99.90;;;;;;4792069;29;20101;-80
2022/11/05 06:18:30;;;;;;;3.13;1.00;;;9.70;99.90;;;;;;4778991;29;20606;-80
2022/11/05 06:21:02;;;;;;;2.30;1.27;;;9.80;99.90;;;;;;4779069;29;20315;-81
2022/11/05 06:23:32;;;;;;;3.63;1.20;;;9.80;99.90;;;;;;4793076;29;20047;-81
2022/11/05 06:26:03;;;;;;;3.30;1.08;;;9.80;99.90;;;;;;4778219;29;20053;-81
2022/11/05 06:28:32;;;;;;;3.70;1.13;;;9.90;99.90;;;;;;4772657;29;20401;-81
2022/11/05 06:30:58;;;;;;;4.90;1.10;;;9.90;99.90;;;;;;4775167;29;20066;-81
2022/11/05 06:33:25;;;;;;;6.20;1.40;;;9.90;99.90;;;;;;4758379;29;20602;-80
2022/11/05 06:35:51;;;;;;;4.63;1.40;;;9.90;99.90;;;;;;4770625;29;20050;-81
2022/11/05 06:38:17;;;;;;;8.05;1.92;;;9.90;99.90;;;;;;4772422;29;20051;-81
2022/11/05 06:40:43;;;;;;;4.75;1.48;;;9.90;99.90;;;;;;4789331;29;20053;-82
2022/11/05 06:43:09;;;;;;;6.07;1.67;;;9.90;99.90;;;;;;4760499;29;20398;-78
2022/11/05 06:45:34;;;;;;;7.65;2.13;;;9.90;99.90;;;;;;4775269;29;20089;-83
2022/11/05 06:48:00;;;;;;;7.90;1.38;;;9.90;99.90;;;;;;4765806;29;20498;-81
2022/11/05 06:50:26;;;;;;;5.55;1.45;;;9.90;99.90;;;;;;4765229;29;20058;-81
2022/11/05 06:52:57;;;;;;;6.10;1.20;;;10.00;99.90;;;;;;4780189;29;20054;-80
2022/11/05 06:55:24;;;;;;;5.90;1.35;;;10.00;99.90;;;;;;4807916;29;20414;-79
2022/11/05 06:57:50;;;;;;;7.57;1.50;;;10.00;99.90;;;;;;4763357;29;20066;-82
2022/11/05 07:00:16;;;;;;;9.48;1.50;;;10.00;99.90;;;;;;4796700;29;20055;-81
2022/11/05 07:02:42;;;;;;;5.35;1.48;;;10.00;99.90;;;;;;4790296;29;20054;-81
2022/11/05 07:05:10;;;;;;;5.63;1.35;;;10.10;99.90;;;;;;4771578;29;20058;-81
2022/11/05 07:07:45;;;;;;;4.63;1.70;;;10.00;99.90;;;;;;4794756;29;20062;-81
2022/11/05 07:10:15;;;;;;;2.38;1.15;;;10.00;99.90;;;;;;4790933;29;20048;-83
2022/11/05 07:12:41;;;;;;;2.45;0.93;;;10.00;99.90;;;;;;4779501;29;20047;-81
2022/11/05 07:15:07;;;;;;;3.05;1.30;;;10.00;99.90;;;;;;4794794;29;20054;-81
2022/11/05 07:17:33;;;;;;;6.03;1.40;;;10.00;99.90;;;;;;4779675;29;20059;-81
2022/11/05 07:19:59;;;;;;;5.65;1.25;;;10.00;99.90;;;;;;4751972;29;20175;-80
2022/11/05 07:22:24;;;;;;;4.53;1.25;;;10.00;99.90;;;;;;4779003;29;20200;-80
2022/11/05 07:24:50;;;;;;;3.65;1.10;;;9.90;99.90;;;;;;4780101;29;20602;-81
2022/11/05 07:27:16;;;;;;;4.75;1.38;;;9.90;99.90;;;;;;4800414;29;20071;-80
2022/11/05 07:29:42;;;;;;;7.88;1.38;;;9.90;99.90;;;;;;4800343;29;20062;-79
2022/11/05 07:32:08;;;;;;;4.85;1.40;;;9.80;99.90;;;;;;4782100;29;20077;-81
2022/11/05 07:34:34;;;;;;;3.88;1.15;;;9.80;99.90;;;;;;4779153;29;20477;-80
2022/11/05 07:36:59;;;;;;;4.70;1.23;;;9.80;99.90;;;;;;4781806;29;20170;-83
2022/11/05 07:39:25;;;;;;;4.53;1.30;;;9.80;99.90;;;;;;4769547;29;20066;-83
2022/11/05 07:41:53;;;;;;;4.97;1.30;;;9.80;99.90;;;;;;4767593;29;20042;-80
2022/11/05 07:44:20;;;;;;;7.30;1.48;;;9.80;99.90;;;;;;4782960;29;20066;-80
2022/11/05 07:46:45;;;;;;;3.65;1.05;;;9.80;99.90;;;;;;4768729;29;20066;-79
2022/11/05 07:49:11;;;;;;;3.70;1.40;;;9.80;99.90;;;;;;4797818;29;20047;-80
2022/11/05 07:51:37;;;;;;;2.28;0.90;;;9.70;99.90;;;;;;4767604;29;20042;-80
2022/11/05 07:54:03;;;;;;;3.50;1.20;;;9.70;99.90;;;;;;4768408;29;20169;-80
2022/11/05 07:56:28;;;;;;;3.13;1.40;;;9.70;99.90;;;;;;4769990;29;20054;-80
2022/11/05 07:58:54;;;;;;;5.63;1.25;;;9.70;99.90;;;;;;4783123;29;20066;-80
2022/11/05 08:01:20;;;;;;;3.90;1.67;;;9.60;99.90;;;;;;4781715;29;20489;-81
2022/11/05 08:03:46;;;;;;;2.83;1.20;;;10.10;99.90;;;;;;4765757;29;20054;-80
2022/11/05 08:06:11;;;;;;;4.18;1.52;;;9.70;99.90;;;;;;4778788;29;20054;-80
2022/11/05 08:08:37;;;;;;;3.35;1.30;;;9.60;99.90;;;;;;4786545;29;20781;-80
2022/11/05 08:11:08;;;;;;;2.38;1.20;;;9.70;99.90;;;;;;4786200;29;20085;-81
2022/11/05 08:13:35;;;;;;;4.32;1.40;;;9.70;99.90;;;;;;4799999;29;20066;-80
2022/11/05 08:16:01;;;;;;;4.50;1.48;;;9.70;99.90;;;;;;4771215;29;20058;-80
2022/11/05 08:18:31;;;;;;;4.88;1.60;;;9.80;99.90;;;;;;4801389;29;20395;-80
2022/11/05 08:20:58;;;;;;;3.22;1.20;;;9.80;99.90;;;;;;4784239;29;20050;-82
2022/11/05 08:23:25;;;;;;;4.18;1.58;;;9.90;99.90;;;;;;4797257;29;20054;-81
2022/11/05 08:25:51;;;;;;;3.95;1.27;;;9.90;99.90;;;;;;4784220;29;20047;-80
2022/11/05 08:28:18;;;;;;;8.15;1.63;;;10.00;99.90;;;;;;4782704;29;20054;-81
2022/11/05 08:30:51;;;;;;;6.13;1.40;;;10.00;99.90;;;;;;4799800;29;20054;-80
2022/11/05 08:33:19;;;;;;;6.43;1.63;;;10.10;99.90;;;;;;4783254;29;20118;-82
2022/11/05 08:35:45;;;;;;;3.95;1.40;;;10.10;99.90;;;;;;4792204;29;20078;-80
2022/11/05 08:38:13;;;;;;;6.72;2.03;;;10.10;99.90;;;;;;4780815;29;20057;-82
2022/11/05 08:40:40;;;;;;;5.28;1.45;;;10.10;99.90;;;;;;4780469;29;20050;-82
2022/11/05 08:43:08;;;;;;;7.15;1.67;;;10.20;99.90;;;;;;4775968;29;20101;-81
2022/11/05 08:45:35;;;;;;;6.47;1.80;;;10.20;99.90;;;;;;4793129;29;20583;-81
2022/11/05 08:48:10;;;;;;;4.30;1.50;;;10.20;99.90;;;;;;4778104;29;20509;-82
2022/11/05 08:50:36;;;;;;;5.43;1.42;;;10.30;99.90;;;;;;4784584;29;20215;-81
2022/11/05 08:53:02;;;;;;;4.93;1.55;;;10.30;99.90;;;;;;4782974;29;20136;-81
2022/11/05 08:55:28;;;;;;;3.90;1.40;;;10.30;99.90;;;;;;4779150;29;20058;-81
2022/11/05 08:57:56;;;;;;;4.97;1.40;;;11.10;99.90;;;;;;4780175;29;20115;-80
2022/11/05 09:00:22;;;;;;;5.55;1.67;;;10.40;99.90;;;;;;4779303;29;20225;-81
2022/11/05 09:02:47;;;;;;;3.90;1.27;;;10.40;99.90;;;;;;4782441;29;20149;-82
2022/11/05 09:05:13;;;;;;;5.18;1.40;;;10.50;99.90;;;;;;4783269;29;20521;-80
2022/11/05 09:07:39;;;;;;;4.45;1.42;;;10.50;99.90;;;;;;4795949;29;20058;-80
2022/11/05 09:10:05;;;;;;;4.97;1.40;;;10.50;99.90;;;;;;4778396;29;20054;-81
2022/11/05 09:12:31;;;;;;;6.05;1.35;;;10.40;99.90;;;;;;4794952;29;20129;-81
2022/11/05 09:14:57;;;;;;;7.03;1.60;;;10.50;99.90;;;;;;4776094;29;20058;-81
2022/11/05 09:17:22;;;;;;;5.75;1.10;;;10.50;99.90;;;;;;4795528;29;20126;-81
2022/11/05 09:19:48;;;;;;;7.97;1.40;;;10.50;99.90;;;;;;4762377;29;20058;-82
2022/11/05 09:22:14;;;;;;;3.47;1.40;;;10.50;99.90;;;;;;4750744;29;20057;-82
2022/11/05 09:24:41;;;;;;;4.93;1.45;;;10.60;99.90;;;;;;4765633;29;20096;-81
2022/11/05 09:27:13;;;;;;;8.23;1.50;;;10.60;99.90;;;;;;4780479;29;20507;-82
2022/11/05 09:29:39;;;;;;;7.50;1.23;;;10.60;99.90;;;;;;4773119;29;20111;-81
2022/11/05 09:32:06;;;;;;;4.18;1.40;;;10.60;99.90;;;;;;4776684;29;20063;-81
2022/11/05 09:34:31;;;;;;;4.68;1.65;;;10.70;99.90;;;;;;4775280;29;20498;-81
2022/11/05 09:36:57;;;;;;;5.10;1.38;;;10.70;99.90;;;;;;4759281;29;20061;-80
2022/11/05 09:39:23;;;;;;;5.38;1.98;;;11.00;99.90;;;;;;4802863;29;20280;-81
2022/11/05 09:41:51;;;;;;;5.80;1.95;;;11.20;99.90;;;;;;4775282;29;20571;-80
2022/11/05 09:44:30;;;;;;;4.80;1.75;;;11.20;99.90;;;;;;4786031;29;20126;-80
2022/11/05 09:47:05;;;;;;;4.05;1.30;;;10.70;99.90;;;;;;4786255;29;20051;-80
2022/11/05 09:49:38;;;;;;;5.13;1.60;;;11.30;99.90;;;;;;4775133;29;20055;-80
2022/11/05 09:52:09;;;;;;;4.57;1.35;;;11.40;99.90;;;;;;4787535;29;20085;-81
2022/11/05 09:54:36;;;;;;;4.45;1.40;;;11.50;99.90;;;;;;4789735;29;20054;-80
2022/11/05 09:57:05;;;;;;;4.72;1.40;;;11.50;99.90;;;;;;4769676;29;20050;-81
2022/11/05 09:59:47;;;;;;;4.95;1.58;;;11.60;99.90;;;;;;4790633;29;20529;-80
2022/11/05 10:02:48;;;;;;;2.85;1.30;;;11.60;99.90;;;;;;4788901;29;20045;-81
2022/11/05 10:05:14;;;;;;;3.35;1.48;;;11.70;99.90;;;;;;4771396;29;20067;-81
2022/11/05 10:07:49;;;;;;;3.58;1.38;;;11.70;99.90;;;;;;4763120;29;20051;-80
2022/11/05 10:10:24;;;;;;;4.93;1.42;;;11.70;99.90;;;;;;4788952;29;20046;-81
2022/11/05 10:12:54;;;;;;;4.10;1.35;;;11.80;99.90;;;;;;4774258;29;20067;-81
2022/11/05 10:15:29;;;;;;;5.45;1.60;;;11.90;99.90;;;;;;4786884;29;20051;-88
2022/11/05 10:18:02;;;;;;;5.07;1.42;;;11.90;99.90;;;;;;4770286;29;20090;-84
2022/11/05 10:20:37;;;;;;;6.78;1.60;;;12.00;99.90;;;;;;4785674;29;20074;-82
2022/11/05 10:23:22;;;;;;;4.90;1.60;;;12.10;99.90;;;;;;4775593;29;20405;-87
2022/11/05 10:25:53;;;;;;;4.50;1.85;;;12.20;99.90;;;;;;4785311;29;20087;-82
2022/11/05 10:28:26;;;;;;;4.18;1.30;;;12.20;99.90;;;;;;4789539;29;20038;-84
2022/11/05 10:31:02;;;;;;;7.65;1.63;;;12.30;99.90;;;;;;4805207;29;20141;-81
2022/11/05 10:33:34;;;;;;;3.88;1.63;;;12.30;99.90;;;;;;4790039;29;20111;-78
2022/11/05 10:36:06;;;;;;;4.05;1.20;;;12.30;99.90;;;;;;4774089;29;20096;-78
2022/11/05 10:38:33;;;;;;;4.93;1.70;;;12.40;99.90;;;;;;4773329;29;20108;-80
2022/11/05 10:41:34;;;;;;;3.83;1.38;;;12.40;99.90;;;;;;4773788;29;20048;-80
2022/11/05 10:44:18;;;;;;;3.92;1.23;;;11.40;99.90;;;;;;4786802;29;20085;-79
2022/11/05 10:46:56;;;;;;;5.57;1.50;;;12.30;99.90;;;;;;4775023;29;20058;-80
2022/11/05 10:49:58;;;;;;;2.15;1.17;;;12.30;99.90;;;;;;4776274;29;20091;-80
2022/11/05 10:52:58;;;;;;;3.28;1.30;;;12.30;99.90;;;;;;4716895;30;20147;-80
2022/11/05 10:55:30;;;;;;;2.92;1.00;;;12.20;99.90;;;;;;4787854;29;20515;-80
2022/11/05 10:58:19;;;;;;;4.30;1.17;;;12.10;99.90;;;;;;4784203;29;20615;-80
2022/11/05 11:01:01;;;;;;;2.53;1.10;;;12.10;99.90;;;;;;4797614;29;20046;-80
2022/11/05 11:03:39;;;;;;;4.07;1.60;;;12.00;99.90;;;;;;4786646;29;20516;-81
2022/11/05 11:06:26;;;;;;;2.45;1.20;;;12.00;99.90;;;;;;4794577;29;20463;-80
2022/11/05 11:08:58;;;;;;;5.28;1.27;;;12.00;99.90;;;;;;4792213;29;20054;-80
2022/11/05 11:11:37;;;;;;;3.55;1.10;;;11.90;99.90;;;;;;4787894;29;20078;-80
2022/11/05 11:14:12;;;;;;;3.00;1.13;;;11.90;99.90;;;;;;4789551;29;20099;-80
2022/11/05 11:16:41;;;;;;;2.58;1.00;;;11.90;99.90;;;;;;4789840;29;20055;-80
2022/11/05 11:19:25;;;;;;;3.05;1.40;;;11.90;99.90;;;;;;4807127;29;20141;-80
2022/11/05 11:22:03;;;;;;;5.30;1.33;;;11.80;99.90;;;;;;4775236;29;20686;-80
2022/11/05 11:24:48;;;;;;;4.00;1.20;;;11.80;99.90;;;;;;4776484;29;20082;-81
2022/11/05 11:27:26;;;;;;;2.83;1.00;;;11.70;99.90;;;;;;4789056;29;20181;-82
2022/11/05 11:30:02;;;;;;;4.10;1.13;;;11.70;99.90;;;;;;4786197;29;20155;-81
2022/11/05 11:32:35;;;;;;;2.38;1.00;;;11.70;99.90;;;;;;4782101;29;20054;-81
2022/11/05 11:35:02;;;;;;;3.00;0.80;;;11.70;99.90;;;;;;4798198;29;20062;-82
2022/11/05 11:37:34;;;;;;;3.47;1.13;;;11.60;99.90;;;;;;4795986;29;20466;-79
2022/11/05 11:40:10;;;;;;;3.45;0.90;;;11.60;99.90;;;;;;4796815;29;20125;-79
2022/11/05 11:42:39;;;;;;;1.95;0.90;;;11.60;99.90;;;;;;4808663;29;20297;-79
2022/11/05 11:45:14;;;;;;;2.00;0.90;;;11.60;99.90;;;;;;4815413;29;20060;-79
2022/11/05 11:47:44;;;;;;;5.03;0.93;;;11.70;99.90;;;;;;4815216;29;20132;-80
2022/11/05 11:50:39;;;;;;;5.50;1.10;;;11.70;99.90;;;;;;4785248;29;20055;-80
2022/11/05 11:53:20;;;;;;;2.97;1.00;;;11.80;99.90;;;;;;4786311;29;20466;-80
2022/11/05 11:56:13;;;;;;;4.22;1.10;;;11.90;99.90;;;;;;4788010;29;20059;-80
2022/11/05 11:58:53;;;;;;;2.28;0.90;;;11.90;99.90;;;;;;4785792;29;20061;-79
2022/11/05 12:01:37;;;;;;;3.50;1.08;;;11.90;99.90;;;;;;4801031;29;20138;-79
2022/11/05 12:04:03;;;;;;;3.10;1.02;;;11.90;99.90;;;;;;4782694;29;20050;-79
2022/11/05 12:06:39;;;;;;;2.88;1.10;;;11.90;99.90;;;;;;4782880;29;20054;-79
2022/11/05 12:09:18;;;;;;;4.20;1.33;;;11.90;99.90;;;;;;4787277;29;20521;-79
2022/11/05 12:11:46;;;;;;;3.05;1.30;;;11.90;99.90;;;;;;4800745;29;20535;-81
2022/11/05 12:14:35;;;;;;;3.92;1.27;;;11.90;99.90;;;;;;4784093;29;20054;-81
2022/11/05 12:17:01;;;;;;;4.88;1.45;;;11.90;99.90;;;;;;4801085;29;20050;-81
2022/11/05 12:20:00;;;;;;;4.07;1.38;;;12.00;99.90;;;;;;4799728;29;20058;-81
2022/11/05 12:23:26;;;;;;;4.10;1.70;;;12.10;99.90;;;;;;4759125;29;20081;-79
2022/11/05 12:26:09;;;;;;;5.05;1.60;;;12.10;99.90;;;;;;4714670;30;20240;-81
2022/11/05 12:29:03;;;;;;;3.55;1.42;;;12.20;99.90;;;;;;4785283;29;20418;-82
2022/11/05 12:31:47;;;;;;;6.18;1.67;;;12.40;99.90;;;;;;4800489;29;20072;-81
2022/11/05 12:34:34;;;;;;;5.43;1.55;;;12.50;99.90;;;;;;4799884;29;20462;-82
2022/11/05 12:37:28;;;;;;;5.35;1.48;;;14.00;99.90;;;;;;4811619;29;20600;-82
2022/11/05 12:40:06;;;;;;;4.97;1.30;;;12.70;99.90;;;;;;4796716;29;20490;-81
2022/11/05 12:42:50;;;;;;;6.00;1.73;;;12.40;99.90;;;;;;4795778;29;20085;-79
2022/11/05 12:45:21;;;;;;;4.30;1.25;;;12.70;99.90;;;;;;4809616;29;20152;-79
2022/11/05 12:48:08;;;;;;;3.63;1.30;;;12.70;99.90;;;;;;4802245;29;20684;-79
2022/11/05 12:50:54;;;;;;;3.90;1.30;;;12.80;99.90;;;;;;4783633;29;20518;-80
2022/11/05 12:53:49;;;;;;;2.38;1.00;;;12.80;99.90;;;;;;4798840;29;20056;-80
2022/11/05 12:56:20;;;;;;;6.72;1.40;;;12.80;99.90;;;;;;4795167;29;20058;-80
2022/11/05 12:58:59;;;;;;;4.60;1.30;;;12.80;99.90;;;;;;4800839;29;20144;-79
2022/11/05 13:01:36;;;;;;;3.42;1.40;;;12.80;99.90;;;;;;4800894;29;20129;-80
2022/11/05 13:04:14;;;;;;;3.78;1.20;;;12.80;99.90;;;;;;4786797;29;20066;-79
2022/11/05 13:06:43;;;;;;;2.72;0.95;;;12.80;99.90;;;;;;4800326;29;20051;-80
2022/11/05 13:09:16;;;;;;;3.92;1.63;;;12.80;99.90;;;;;;4785276;29;20046;-78
2022/11/05 13:12:03;;;;;;;3.53;1.58;;;12.80;99.90;;;;;;4800635;29;20059;-82
2022/11/05 13:14:41;;;;;;;5.85;1.73;;;12.80;99.90;;;;;;4805243;29;20046;-82
2022/11/05 13:17:13;;;;;;;5.25;2.10;;;12.80;99.90;;;;;;4800211;29;20062;-79
2022/11/05 13:19:46;;;;;;;4.38;1.50;;;12.80;99.90;;;;;;4786934;29;20050;-79
2022/11/05 13:22:21;;;;;;;3.55;1.40;;;12.80;99.90;;;;;;4808003;29;20210;-80
2022/11/05 13:24:56;;;;;;;4.05;1.83;;;12.80;99.90;;;;;;4801140;29;20093;-80
2022/11/05 13:27:47;;;;;;;5.40;1.73;;;12.70;99.90;;;;;;4800002;29;20803;-79
2022/11/05 13:30:23;;;;;;;8.10;1.88;;;12.70;99.90;;;;;;4784533;29;20065;-79
2022/11/05 13:33:00;;;;;;;7.00;2.38;;;12.70;99.90;;;;;;4795947;29;20062;-79
2022/11/05 13:39:05;;;;;;;4.32;2.15;;;12.70;99.90;;;;;;4796899;29;20121;-80
2022/11/05 13:42:02;;;;;;;3.72;1.80;;;12.60;99.90;;;;;;4813050;29;20049;-80
2022/11/05 13:44:49;;;;;;;6.43;2.53;;;12.60;99.90;;;;;;4786348;29;20455;-80
2022/11/05 13:47:37;;;;;;;5.70;2.00;;;12.50;99.90;;;;;;4813472;29;20051;-80
2022/11/05 13:50:06;;;;;;;5.95;2.22;;;12.50;99.90;;;;;;4799700;29;20498;-80
2022/11/05 13:52:40;;;;;;;6.57;2.33;;;12.40;99.90;;;;;;4799753;29;20058;-80
2022/11/05 13:55:36;;;;;;;7.97;2.80;;;12.40;99.90;;;;;;4795754;29;20115;-79
2022/11/05 13:58:34;;;;;;;7.10;2.47;;;12.30;99.90;;;;;;4782771;29;20054;-79
2022/11/05 14:01:06;;;;;;;5.80;3.30;;;12.30;99.90;;;;;;4782235;29;20051;-81